sensor_id;sensor_type;location;lat;lon;timestamp;pressure;altitude;pressure_sealevel;temperature;humidity
2178;BME280;1095;50.992;6.798;2023-05-25T00:00:25;101687.50;;;9.61;94.65
2178;BME280;1095;50.992;6.798;2023-05-25T00:02:54;101691.06;;;9.60;94.41
2178;BME280;1095;50.992;6.798;2023-05-25T00:05:21;101687.28;;;9.53;94.52
2178;BME280;1095;50.992;6.798;2023-05-25T00:07:52;101701.19;;;9.54;94.62
2178;BME280;1095;50.992;6.798;2023-05-25T00:10:19;101693.41;;;9.43;94.47
2178;BME280;1095;50.992;6.798;2023-05-25T00:12:46;101700.41;;;9.42;94.93
2178;BME280;1095;50.992;6.798;2023-05-25T00:15:12;101704.34;;;9.37;95.27
2178;BME280;1095;50.992;6.798;2023-05-25T00:17:39;101701.38;;;9.30;95.15
2178;BME280;1095;50.992;6.798;2023-05-25T00:20:08;101703.97;;;9.30;95.63
2178;BME280;1095;50.992;6.798;2023-05-25T00:22:35;101703.28;;;9.28;95.82
2178;BME280;1095;50.992;6.798;2023-05-25T00:25:02;101715.88;;;9.23;95.83
2178;BME280;1095;50.992;6.798;2023-05-25T00:27:29;101707.56;;;9.18;96.12
2178;BME280;1095;50.992;6.798;2023-05-25T00:29:56;101710.28;;;9.16;96.42
2178;BME280;1095;50.992;6.798;2023-05-25T00:32:22;101706.13;;;9.14;96.47
2178;BME280;1095;50.992;6.798;2023-05-25T00:34:49;101700.56;;;9.07;96.60
2178;BME280;1095;50.992;6.798;2023-05-25T00:37:17;101711.13;;;9.06;96.49
2178;BME280;1095;50.992;6.798;2023-05-25T00:39:43;101702.81;;;9.12;96.58
2178;BME280;1095;50.992;6.798;2023-05-25T00:42:11;101713.25;;;9.01;96.68
2178;BME280;1095;50.992;6.798;2023-05-25T00:44:37;101713.53;;;8.97;96.56
2178;BME280;1095;50.992;6.798;2023-05-25T00:47:04;101711.88;;;8.96;96.95
2178;BME280;1095;50.992;6.798;2023-05-25T00:49:34;101718.97;;;8.94;97.03
2178;BME280;1095;50.992;6.798;2023-05-25T00:52:02;101707.25;;;8.89;97.49
2178;BME280;1095;50.992;6.798;2023-05-25T00:54:30;101713.63;;;8.85;97.11
2178;BME280;1095;50.992;6.798;2023-05-25T00:57:01;101717.09;;;8.85;97.38
2178;BME280;1095;50.992;6.798;2023-05-25T00:59:31;101707.09;;;8.79;97.59
2178;BME280;1095;50.992;6.798;2023-05-25T01:02:02;101713.63;;;8.85;97.59
2178;BME280;1095;50.992;6.798;2023-05-25T01:04:33;101717.44;;;8.81;97.59
2178;BME280;1095;50.992;6.798;2023-05-25T01:07:03;101712.69;;;8.75;97.45
2178;BME280;1095;50.992;6.798;2023-05-25T01:09:33;101716.59;;;8.80;97.45
2178;BME280;1095;50.992;6.798;2023-05-25T01:12:01;101705.78;;;8.74;97.42
2178;BME280;1095;50.992;6.798;2023-05-25T01:14:28;101722.28;;;8.63;97.68
2178;BME280;1095;50.992;6.798;2023-05-25T01:16:56;101719.44;;;8.66;97.80
2178;BME280;1095;50.992;6.798;2023-05-25T01:19:24;101721.56;;;8.61;98.03
2178;BME280;1095;50.992;6.798;2023-05-25T01:21:58;101732.22;;;8.58;98.29
2178;BME280;1095;50.992;6.798;2023-05-25T01:24:29;101727.94;;;8.57;98.52
2178;BME280;1095;50.992;6.798;2023-05-25T01:29:32;101727.72;;;8.49;98.52
2178;BME280;1095;50.992;6.798;2023-05-25T01:32:00;101728.06;;;8.44;98.62
2178;BME280;1095;50.992;6.798;2023-05-25T01:34:29;101723.91;;;8.42;98.89
2178;BME280;1095;50.992;6.798;2023-05-25T01:36:58;101718.09;;;8.38;99.23
2178;BME280;1095;50.992;6.798;2023-05-25T01:39:24;101721.69;;;8.48;99.08
2178;BME280;1095;50.992;6.798;2023-05-25T01:41:51;101719.78;;;8.50;98.96
2178;BME280;1095;50.992;6.798;2023-05-25T01:44:18;101717.97;;;8.40;99.05
2178;BME280;1095;50.992;6.798;2023-05-25T01:46:47;101720.09;;;8.35;99.09
2178;BME280;1095;50.992;6.798;2023-05-25T01:49:18;101725.91;;;8.38;99.02
2178;BME280;1095;50.992;6.798;2023-05-25T01:51:53;101728.41;;;8.40;98.89
2178;BME280;1095;50.992;6.798;2023-05-25T01:54:29;101720.94;;;8.35;98.57
2178;BME280;1095;50.992;6.798;2023-05-25T01:57:00;101728.03;;;8.33;98.83
2178;BME280;1095;50.992;6.798;2023-05-25T01:59:30;101720.53;;;8.28;99.26
2178;BME280;1095;50.992;6.798;2023-05-25T02:01:58;101718.63;;;8.30;99.56
2178;BME280;1095;50.992;6.798;2023-05-25T02:04:25;101725.75;;;8.28;99.59
2178;BME280;1095;50.992;6.798;2023-05-25T02:06:52;101725.97;;;8.25;99.75
2178;BME280;1095;50.992;6.798;2023-05-25T02:09:19;101730.56;;;8.22;99.84
2178;BME280;1095;50.992;6.798;2023-05-25T02:11:47;101723.69;;;8.21;100.00
2178;BME280;1095;50.992;6.798;2023-05-25T02:14:14;101722.88;;;8.20;100.00
2178;BME280;1095;50.992;6.798;2023-05-25T02:16:41;101717.28;;;8.14;99.97
2178;BME280;1095;50.992;6.798;2023-05-25T02:19:10;101726.38;;;8.08;99.97
2178;BME280;1095;50.992;6.798;2023-05-25T02:21:39;101730.88;;;8.06;100.00
2178;BME280;1095;50.992;6.798;2023-05-25T02:24:06;101729.22;;;8.05;100.00
2178;BME280;1095;50.992;6.798;2023-05-25T02:26:34;101725.19;;;8.01;100.00
2178;BME280;1095;50.992;6.798;2023-05-25T02:29:02;101739.06;;;8.02;100.00
2178;BME280;1095;50.992;6.798;2023-05-25T02:31:29;101735.72;;;7.99;100.00
2178;BME280;1095;50.992;6.798;2023-05-25T02:33:55;101723.41;;;8.02;100.00
2178;BME280;1095;50.992;6.798;2023-05-25T02:36:23;101728.25;;;7.95;100.00
2178;BME280;1095;50.992;6.798;2023-05-25T02:38:50;101730.47;;;7.88;100.00
2178;BME280;1095;50.992;6.798;2023-05-25T02:41:17;101729.34;;;7.80;100.00
2178;BME280;1095;50.992;6.798;2023-05-25T02:43:45;101735.84;;;7.74;100.00
2178;BME280;1095;50.992;6.798;2023-05-25T02:46:13;101744.47;;;7.75;100.00
2178;BME280;1095;50.992;6.798;2023-05-25T02:48:40;101738.78;;;7.70;100.00
2178;BME280;1095;50.992;6.798;2023-05-25T02:51:07;101745.34;;;7.62;100.00
2178;BME280;1095;50.992;6.798;2023-05-25T02:53:34;101746.28;;;7.61;100.00
2178;BME280;1095;50.992;6.798;2023-05-25T02:56:01;101749.84;;;7.60;100.00
2178;BME280;1095;50.992;6.798;2023-05-25T02:58:29;101752.66;;;7.57;100.00
2178;BME280;1095;50.992;6.798;2023-05-25T03:00:55;101755.72;;;7.51;100.00
2178;BME280;1095;50.992;6.798;2023-05-25T03:03:25;101743.88;;;7.47;100.00
2178;BME280;1095;50.992;6.798;2023-05-25T03:05:52;101757.31;;;7.41;100.00
2178;BME280;1095;50.992;6.798;2023-05-25T03:08:19;101751.59;;;7.36;100.00
2178;BME280;1095;50.992;6.798;2023-05-25T03:10:46;101761.28;;;7.34;100.00
2178;BME280;1095;50.992;6.798;2023-05-25T03:13:12;101764.91;;;7.44;100.00
2178;BME280;1095;50.992;6.798;2023-05-25T03:15:39;101770.44;;;7.40;100.00
2178;BME280;1095;50.992;6.798;2023-05-25T03:18:06;101765.75;;;7.45;100.00
2178;BME280;1095;50.992;6.798;2023-05-25T03:20:34;101767.31;;;7.47;100.00
2178;BME280;1095;50.992;6.798;2023-05-25T03:23:01;101770.94;;;7.45;100.00
2178;BME280;1095;50.992;6.798;2023-05-25T03:25:27;101762.53;;;7.41;100.00
2178;BME280;1095;50.992;6.798;2023-05-25T03:27:55;101774.50;;;7.44;100.00
2178;BME280;1095;50.992;6.798;2023-05-25T03:30:22;101774.38;;;7.45;100.00
2178;BME280;1095;50.992;6.798;2023-05-25T03:32:48;101781.16;;;7.48;100.00
2178;BME280;1095;50.992;6.798;2023-05-25T03:35:15;101787.81;;;7.52;100.00
2178;BME280;1095;50.992;6.798;2023-05-25T03:37:43;101787.94;;;7.50;100.00
2178;BME280;1095;50.992;6.798;2023-05-25T03:40:10;101791.34;;;7.51;100.00
2178;BME280;1095;50.992;6.798;2023-05-25T03:42:37;101798.84;;;7.55;100.00
2178;BME280;1095;50.992;6.798;2023-05-25T03:45:05;101793.19;;;7.61;100.00
2178;BME280;1095;50.992;6.798;2023-05-25T03:47:33;101796.63;;;7.62;100.00
2178;BME280;1095;50.992;6.798;2023-05-25T03:50:00;101791.81;;;7.69;100.00
2178;BME280;1095;50.992;6.798;2023-05-25T03:52:26;101788.81;;;7.62;100.00
2178;BME280;1095;50.992;6.798;2023-05-25T03:54:54;101794.38;;;7.81;100.00
2178;BME280;1095;50.992;6.798;2023-05-25T03:57:21;101800.78;;;8.01;100.00
2178;BME280;1095;50.992;6.798;2023-05-25T03:59:48;101807.34;;;8.18;100.00
2178;BME280;1095;50.992;6.798;2023-05-25T04:02:14;101796.13;;;8.41;100.00
2178;BME280;1095;50.992;6.798;2023-05-25T04:04:41;101798.31;;;8.70;100.00
2178;BME280;1095;50.992;6.798;2023-05-25T04:07:08;101797.19;;;8.96;100.00
2178;BME280;1095;50.992;6.798;2023-05-25T04:09:35;101792.44;;;9.12;99.05
2178;BME280;1095;50.992;6.798;2023-05-25T04:12:03;101786.38;;;9.23;98.08
2178;BME280;1095;50.992;6.798;2023-05-25T04:14:30;101800.16;;;9.36;97.08
2178;BME280;1095;50.992;6.798;2023-05-25T04:16:56;101790.88;;;9.32;96.16
2178;BME280;1095;50.992;6.798;2023-05-25T04:19:23;101789.06;;;9.55;95.41
2178;BME280;1095;50.992;6.798;2023-05-25T04:21:50;101790.13;;;9.63;95.06
2178;BME280;1095;50.992;6.798;2023-05-25T04:24:16;101791.78;;;9.76;94.06
2178;BME280;1095;50.992;6.798;2023-05-25T04:26:43;101792.38;;;10.22;93.08
2178;BME280;1095;50.992;6.798;2023-05-25T04:29:11;101775.97;;;10.41;91.19
2178;BME280;1095;50.992;6.798;2023-05-25T04:31:38;101780.25;;;10.42;90.46
2178;BME280;1095;50.992;6.798;2023-05-25T04:34:05;101793.53;;;10.29;90.46
2178;BME280;1095;50.992;6.798;2023-05-25T04:36:33;101790.00;;;10.19;90.33
2178;BME280;1095;50.992;6.798;2023-05-25T04:39:03;101794.28;;;10.20;90.74
2178;BME280;1095;50.992;6.798;2023-05-25T04:41:30;101793.03;;;10.36;90.97
2178;BME280;1095;50.992;6.798;2023-05-25T04:43:58;101791.16;;;10.68;90.64
2178;BME280;1095;50.992;6.798;2023-05-25T04:46:26;101795.28;;;10.91;89.96
2178;BME280;1095;50.992;6.798;2023-05-25T04:48:54;101786.63;;;10.70;89.10
2178;BME280;1095;50.992;6.798;2023-05-25T04:51:20;101786.75;;;10.48;89.28
2178;BME280;1095;50.992;6.798;2023-05-25T04:53:47;101788.19;;;10.73;89.88
2178;BME280;1095;50.992;6.798;2023-05-25T04:56:14;101798.00;;;11.11;89.60
2178;BME280;1095;50.992;6.798;2023-05-25T04:58:40;101795.47;;;11.30;88.71
2178;BME280;1095;50.992;6.798;2023-05-25T05:01:07;101797.16;;;11.41;88.10
2178;BME280;1095;50.992;6.798;2023-05-25T05:03:35;101797.84;;;11.83;86.85
2178;BME280;1095;50.992;6.798;2023-05-25T05:06:02;101803.94;;;12.03;86.25
2178;BME280;1095;50.992;6.798;2023-05-25T05:08:29;101793.28;;;12.43;85.02
2178;BME280;1095;50.992;6.798;2023-05-25T05:10:56;101792.03;;;12.66;83.94
2178;BME280;1095;50.992;6.798;2023-05-25T05:13:22;101790.09;;;12.58;83.29
2178;BME280;1095;50.992;6.798;2023-05-25T05:15:50;101808.28;;;12.89;83.19
2178;BME280;1095;50.992;6.798;2023-05-25T05:18:18;101799.28;;;13.38;82.11
2178;BME280;1095;50.992;6.798;2023-05-25T05:20:46;101807.41;;;14.25;79.40
2178;BME280;1095;50.992;6.798;2023-05-25T05:23:13;101799.41;;;14.97;76.91
2178;BME280;1095;50.992;6.798;2023-05-25T05:25:39;101799.13;;;15.42;74.65
2178;BME280;1095;50.992;6.798;2023-05-25T05:28:06;101800.63;;;16.27;72.24
2178;BME280;1095;50.992;6.798;2023-05-25T05:30:32;101785.94;;;16.41;70.60
2178;BME280;1095;50.992;6.798;2023-05-25T05:32:59;101801.75;;;16.98;70.07
2178;BME280;1095;50.992;6.798;2023-05-25T05:35:25;101787.47;;;17.07;69.21
2178;BME280;1095;50.992;6.798;2023-05-25T05:37:53;101787.53;;;16.90;68.08
2178;BME280;1095;50.992;6.798;2023-05-25T05:40:21;101793.88;;;17.59;67.60
2178;BME280;1095;50.992;6.798;2023-05-25T05:42:47;101793.50;;;17.63;66.75
2178;BME280;1095;50.992;6.798;2023-05-25T05:45:13;101799.84;;;17.93;66.28
2178;BME280;1095;50.992;6.798;2023-05-25T05:47:40;101796.16;;;17.71;66.03
2178;BME280;1095;50.992;6.798;2023-05-25T05:50:07;101799.31;;;17.27;67.17
2178;BME280;1095;50.992;6.798;2023-05-25T05:52:33;101804.13;;;17.54;67.30
2178;BME280;1095;50.992;6.798;2023-05-25T05:55:01;101818.19;;;18.40;66.00
2178;BME280;1095;50.992;6.798;2023-05-25T05:57:27;101800.91;;;18.96;64.24
2178;BME280;1095;50.992;6.798;2023-05-25T05:59:54;101792.47;;;18.63;62.91
2178;BME280;1095;50.992;6.798;2023-05-25T06:02:20;101806.69;;;19.14;63.77
2178;BME280;1095;50.992;6.798;2023-05-25T06:04:47;101803.91;;;19.88;62.06
2178;BME280;1095;50.992;6.798;2023-05-25T06:07:13;101797.22;;;19.41;61.22
2178;BME280;1095;50.992;6.798;2023-05-25T06:09:39;101796.53;;;19.33;61.15
2178;BME280;1095;50.992;6.798;2023-05-25T06:12:08;101792.78;;;19.99;60.22
2178;BME280;1095;50.992;6.798;2023-05-25T06:14:34;101805.72;;;19.66;60.15
2178;BME280;1095;50.992;6.798;2023-05-25T06:17:00;101812.25;;;20.06;59.71
2178;BME280;1095;50.992;6.798;2023-05-25T06:19:27;101803.41;;;20.20;58.54
2178;BME280;1095;50.992;6.798;2023-05-25T06:21:53;101815.28;;;18.87;61.52
2178;BME280;1095;50.992;6.798;2023-05-25T06:24:20;101810.88;;;19.09;61.75
2178;BME280;1095;50.992;6.798;2023-05-25T06:26:46;101811.50;;;18.44;61.20
2178;BME280;1095;50.992;6.798;2023-05-25T06:29:14;101805.75;;;19.07;61.41
2178;BME280;1095;50.992;6.798;2023-05-25T06:31:41;101819.00;;;19.66;61.19
2178;BME280;1095;50.992;6.798;2023-05-25T06:34:07;101824.47;;;18.62;62.32
2178;BME280;1095;50.992;6.798;2023-05-25T06:36:34;101835.00;;;17.78;64.67
2178;BME280;1095;50.992;6.798;2023-05-25T06:39:01;101831.41;;;17.63;64.51
2178;BME280;1095;50.992;6.798;2023-05-25T06:41:28;101836.22;;;18.21;63.42
2178;BME280;1095;50.992;6.798;2023-05-25T06:43:55;101832.88;;;20.04;61.56
2178;BME280;1095;50.992;6.798;2023-05-25T06:46:22;101830.53;;;19.59;60.85
2178;BME280;1095;50.992;6.798;2023-05-25T06:48:49;101830.84;;;18.90;62.77
2178;BME280;1095;50.992;6.798;2023-05-25T06:51:16;101834.53;;;20.05;61.35
2178;BME280;1095;50.992;6.798;2023-05-25T06:53:43;101829.22;;;20.27;59.40
2178;BME280;1095;50.992;6.798;2023-05-25T06:56:09;101832.94;;;20.81;57.92
2178;BME280;1095;50.992;6.798;2023-05-25T06:58:36;101832.50;;;20.50;58.04
2178;BME280;1095;50.992;6.798;2023-05-25T07:01:03;101848.28;;;20.51;59.31
2178;BME280;1095;50.992;6.798;2023-05-25T07:03:31;101836.06;;;21.19;57.53
2178;BME280;1095;50.992;6.798;2023-05-25T07:05:57;101840.03;;;20.46;58.25
2178;BME280;1095;50.992;6.798;2023-05-25T07:08:24;101838.59;;;19.65;59.63
2178;BME280;1095;50.992;6.798;2023-05-25T07:10:51;101846.75;;;20.21;59.63
2178;BME280;1095;50.992;6.798;2023-05-25T07:13:18;101842.56;;;20.33;58.66
2178;BME280;1095;50.992;6.798;2023-05-25T07:15:44;101849.16;;;20.59;58.19
2178;BME280;1095;50.992;6.798;2023-05-25T07:18:11;101856.59;;;20.98;58.13
2178;BME280;1095;50.992;6.798;2023-05-25T07:20:40;101860.34;;;20.33;59.05
2178;BME280;1095;50.992;6.798;2023-05-25T07:23:08;101855.59;;;21.33;58.08
2178;BME280;1095;50.992;6.798;2023-05-25T07:25:35;101849.81;;;20.39;59.24
2178;BME280;1095;50.992;6.798;2023-05-25T07:28:02;101841.22;;;21.21;56.71
2178;BME280;1095;50.992;6.798;2023-05-25T07:30:29;101854.41;;;21.08;57.03
2178;BME280;1095;50.992;6.798;2023-05-25T07:32:56;101854.81;;;21.05;57.18
2178;BME280;1095;50.992;6.798;2023-05-25T07:35:23;101854.41;;;20.73;57.76
2178;BME280;1095;50.992;6.798;2023-05-25T07:37:58;101839.59;;;20.00;58.20
2178;BME280;1095;50.992;6.798;2023-05-25T07:40:25;101852.31;;;20.47;58.47
2178;BME280;1095;50.992;6.798;2023-05-25T07:42:52;101844.16;;;20.06;58.27
2178;BME280;1095;50.992;6.798;2023-05-25T07:45:19;101851.34;;;20.34;57.83
2178;BME280;1095;50.992;6.798;2023-05-25T07:47:46;101836.97;;;21.33;56.42
2178;BME280;1095;50.992;6.798;2023-05-25T07:50:13;101834.69;;;21.24;56.28
2178;BME280;1095;50.992;6.798;2023-05-25T07:52:40;101845.84;;;21.47;56.70
2178;BME280;1095;50.992;6.798;2023-05-25T07:55:09;101841.97;;;22.24;55.74
2178;BME280;1095;50.992;6.798;2023-05-25T07:57:36;101848.19;;;23.55;54.41
2178;BME280;1095;50.992;6.798;2023-05-25T08:00:03;101830.91;;;22.13;54.07
2178;BME280;1095;50.992;6.798;2023-05-25T08:02:32;101850.06;;;21.89;55.60
2178;BME280;1095;50.992;6.798;2023-05-25T08:04:58;101855.59;;;23.39;54.71
2178;BME280;1095;50.992;6.798;2023-05-25T08:07:29;101856.25;;;23.86;54.57
2178;BME280;1095;50.992;6.798;2023-05-25T08:09:56;101855.22;;;24.19;53.20
2178;BME280;1095;50.992;6.798;2023-05-25T08:12:24;101845.69;;;23.60;53.56
2178;BME280;1095;50.992;6.798;2023-05-25T08:14:51;101842.00;;;24.24;52.13
2178;BME280;1095;50.992;6.798;2023-05-25T08:17:18;101835.13;;;21.88;55.13
2178;BME280;1095;50.992;6.798;2023-05-25T08:19:45;101840.16;;;22.64;55.50
2178;BME280;1095;50.992;6.798;2023-05-25T08:22:11;101846.09;;;22.86;54.59
2178;BME280;1095;50.992;6.798;2023-05-25T08:24:38;101835.19;;;22.01;54.98
2178;BME280;1095;50.992;6.798;2023-05-25T08:27:05;101845.91;;;19.99;59.04
2178;BME280;1095;50.992;6.798;2023-05-25T08:29:33;101844.28;;;20.41;59.23
2178;BME280;1095;50.992;6.798;2023-05-25T08:31:59;101842.44;;;19.63;60.50
2178;BME280;1095;50.992;6.798;2023-05-25T08:34:25;101846.28;;;20.88;59.42
2178;BME280;1095;50.992;6.798;2023-05-25T08:36:53;101843.44;;;22.46;56.07
2178;BME280;1095;50.992;6.798;2023-05-25T08:39:19;101844.88;;;21.61;55.42
2178;BME280;1095;50.992;6.798;2023-05-25T08:41:46;101843.03;;;22.49;54.27
2178;BME280;1095;50.992;6.798;2023-05-25T08:44:12;101841.94;;;21.43;56.27
2178;BME280;1095;50.992;6.798;2023-05-25T08:46:40;101841.75;;;21.51;55.97
2178;BME280;1095;50.992;6.798;2023-05-25T08:49:08;101846.63;;;21.06;56.66
2178;BME280;1095;50.992;6.798;2023-05-25T08:51:35;101840.34;;;20.37;57.69
2178;BME280;1095;50.992;6.798;2023-05-25T08:54:04;101840.78;;;21.59;58.00
2178;BME280;1095;50.992;6.798;2023-05-25T08:56:36;101841.00;;;20.60;56.68
2178;BME280;1095;50.992;6.798;2023-05-25T08:59:07;101834.94;;;19.87;58.36
2178;BME280;1095;50.992;6.798;2023-05-25T09:01:38;101846.28;;;19.75;59.78
2178;BME280;1095;50.992;6.798;2023-05-25T09:04:07;101854.97;;;19.83;59.84
2178;BME280;1095;50.992;6.798;2023-05-25T09:06:33;101840.50;;;20.29;59.37
2178;BME280;1095;50.992;6.798;2023-05-25T09:09:02;101837.03;;;21.12;56.83
2178;BME280;1095;50.992;6.798;2023-05-25T09:11:30;101838.22;;;21.37;55.77
2178;BME280;1095;50.992;6.798;2023-05-25T09:13:57;101826.56;;;21.04;55.30
2178;BME280;1095;50.992;6.798;2023-05-25T09:16:24;101830.47;;;21.49;55.21
2178;BME280;1095;50.992;6.798;2023-05-25T09:18:51;101821.44;;;20.46;56.21
2178;BME280;1095;50.992;6.798;2023-05-25T09:21:19;101824.88;;;19.62;58.31
2178;BME280;1095;50.992;6.798;2023-05-25T09:23:47;101832.81;;;19.98;58.22
2178;BME280;1095;50.992;6.798;2023-05-25T09:26:14;101836.53;;;18.64;60.00
2178;BME280;1095;50.992;6.798;2023-05-25T09:28:43;101842.06;;;18.09;62.12
2178;BME280;1095;50.992;6.798;2023-05-25T09:31:10;101845.34;;;18.79;62.08
2178;BME280;1095;50.992;6.798;2023-05-25T09:33:37;101829.97;;;19.78;59.70
2178;BME280;1095;50.992;6.798;2023-05-25T09:36:04;101840.09;;;20.53;58.98
2178;BME280;1095;50.992;6.798;2023-05-25T09:38:32;101833.06;;;20.03;58.67
2178;BME280;1095;50.992;6.798;2023-05-25T09:40:59;101841.44;;;19.05;60.62
2178;BME280;1095;50.992;6.798;2023-05-25T09:43:26;101848.28;;;19.73;59.78
2178;BME280;1095;50.992;6.798;2023-05-25T09:45:52;101836.28;;;19.77;59.62
2178;BME280;1095;50.992;6.798;2023-05-25T09:48:19;101837.88;;;19.27;59.57
2178;BME280;1095;50.992;6.798;2023-05-25T09:50:47;101844.09;;;19.64;60.42
2178;BME280;1095;50.992;6.798;2023-05-25T09:53:13;101832.28;;;19.66;59.64
2178;BME280;1095;50.992;6.798;2023-05-25T09:55:41;101852.06;;;18.90;61.41
2178;BME280;1095;50.992;6.798;2023-05-25T09:58:08;101849.72;;;18.04;62.98
2178;BME280;1095;50.992;6.798;2023-05-25T10:00:37;101866.63;;;17.64;64.37
2178;BME280;1095;50.992;6.798;2023-05-25T10:03:04;101864.16;;;17.70;64.73
2178;BME280;1095;50.992;6.798;2023-05-25T10:05:32;101860.00;;;17.76;64.82
2178;BME280;1095;50.992;6.798;2023-05-25T10:08:00;101851.22;;;18.29;63.95
2178;BME280;1095;50.992;6.798;2023-05-25T10:10:28;101846.28;;;19.01;62.31
2178;BME280;1095;50.992;6.798;2023-05-25T10:12:56;101854.78;;;18.59;61.64
2178;BME280;1095;50.992;6.798;2023-05-25T10:15:24;101852.69;;;18.32;61.92
2178;BME280;1095;50.992;6.798;2023-05-25T10:17:53;101853.69;;;18.31;62.46
2178;BME280;1095;50.992;6.798;2023-05-25T10:20:21;101846.28;;;19.16;61.32
2178;BME280;1095;50.992;6.798;2023-05-25T10:22:52;101850.88;;;19.07;60.88
2178;BME280;1095;50.992;6.798;2023-05-25T10:25:25;101855.88;;;19.02;61.08
2178;BME280;1095;50.992;6.798;2023-05-25T10:27:57;101836.88;;;19.13;59.89
2178;BME280;1095;50.992;6.798;2023-05-25T10:30:25;101848.22;;;19.37;60.08
2178;BME280;1095;50.992;6.798;2023-05-25T10:32:53;101835.97;;;19.21;59.97
2178;BME280;1095;50.992;6.798;2023-05-25T10:35:21;101847.75;;;19.04;60.74
2178;BME280;1095;50.992;6.798;2023-05-25T10:37:50;101846.66;;;18.83;60.35
2178;BME280;1095;50.992;6.798;2023-05-25T10:40:18;101851.66;;;18.55;61.63
2178;BME280;1095;50.992;6.798;2023-05-25T10:42:46;101852.16;;;19.26;60.68
2178;BME280;1095;50.992;6.798;2023-05-25T10:45:14;101850.81;;;18.63;60.79
2178;BME280;1095;50.992;6.798;2023-05-25T10:47:41;101860.66;;;18.01;62.50
2178;BME280;1095;50.992;6.798;2023-05-25T10:50:20;101875.34;;;18.95;61.95
2178;BME280;1095;50.992;6.798;2023-05-25T10:52:59;101859.78;;;18.08;62.43
2178;BME280;1095;50.992;6.798;2023-05-25T10:55:26;101855.63;;;17.91;63.13
2178;BME280;1095;50.992;6.798;2023-05-25T10:58:09;101870.94;;;17.73;63.41
2178;BME280;1095;50.992;6.798;2023-05-25T11:00:38;101854.34;;;18.33;62.08
2178;BME280;1095;50.992;6.798;2023-05-25T11:03:07;101847.25;;;18.48;61.94
2178;BME280;1095;50.992;6.798;2023-05-25T11:05:35;101855.03;;;18.27;62.47
2178;BME280;1095;50.992;6.798;2023-05-25T11:08:04;101849.16;;;18.62;62.75
2178;BME280;1095;50.992;6.798;2023-05-25T11:10:42;101853.28;;;18.42;63.07
2178;BME280;1095;50.992;6.798;2023-05-25T11:13:36;101847.38;;;18.77;62.28
2178;BME280;1095;50.992;6.798;2023-05-25T11:16:30;101854.44;;;18.16;61.92
2178;BME280;1095;50.992;6.798;2023-05-25T11:19:00;101856.00;;;18.34;61.78
2178;BME280;1095;50.992;6.798;2023-05-25T11:21:42;101852.34;;;18.35;61.92
2178;BME280;1095;50.992;6.798;2023-05-25T11:24:14;101846.25;;;18.72;61.89
2178;BME280;1095;50.992;6.798;2023-05-25T11:26:55;101843.03;;;18.39;61.18
2178;BME280;1095;50.992;6.798;2023-05-25T11:29:22;101851.69;;;18.10;61.41
2178;BME280;1095;50.992;6.798;2023-05-25T11:31:53;101846.75;;;17.76;63.14
2178;BME280;1095;50.992;6.798;2023-05-25T11:34:21;101848.56;;;18.06;62.61
2178;BME280;1095;50.992;6.798;2023-05-25T11:36:53;101848.06;;;18.03;62.57
2178;BME280;1095;50.992;6.798;2023-05-25T11:39:19;101843.75;;;17.79;62.55
2178;BME280;1095;50.992;6.798;2023-05-25T11:41:48;101843.38;;;18.13;62.62
2178;BME280;1095;50.992;6.798;2023-05-25T11:44:24;101835.22;;;18.22;62.62
2178;BME280;1095;50.992;6.798;2023-05-25T11:46:54;101856.75;;;18.19;63.35
2178;BME280;1095;50.992;6.798;2023-05-25T11:49:22;101863.78;;;18.50;62.53
2178;BME280;1095;50.992;6.798;2023-05-25T11:51:50;101832.22;;;18.86;61.83
2178;BME280;1095;50.992;6.798;2023-05-25T11:54:22;101826.56;;;18.29;62.55
2178;BME280;1095;50.992;6.798;2023-05-25T11:56:49;101836.75;;;18.92;61.49
2178;BME280;1095;50.992;6.798;2023-05-25T11:59:16;101854.53;;;18.31;62.17
2178;BME280;1095;50.992;6.798;2023-05-25T12:01:42;101853.53;;;18.32;62.60
2178;BME280;1095;50.992;6.798;2023-05-25T12:04:11;101845.97;;;18.21;62.86
2178;BME280;1095;50.992;6.798;2023-05-25T12:06:37;101854.25;;;17.56;64.05
2178;BME280;1095;50.992;6.798;2023-05-25T12:09:09;101863.84;;;17.57;64.33
2178;BME280;1095;50.992;6.798;2023-05-25T12:11:37;101859.22;;;17.51;63.73
2178;BME280;1095;50.992;6.798;2023-05-25T12:14:05;101847.25;;;17.79;64.00
2178;BME280;1095;50.992;6.798;2023-05-25T12:16:32;101856.88;;;17.72;63.85
2178;BME280;1095;50.992;6.798;2023-05-25T12:19:01;101851.69;;;17.40;64.32
2178;BME280;1095;50.992;6.798;2023-05-25T12:21:30;101845.81;;;17.52;63.98
2178;BME280;1095;50.992;6.798;2023-05-25T12:23:58;101851.94;;;17.53;63.90
2178;BME280;1095;50.992;6.798;2023-05-25T12:26:27;101846.72;;;17.84;63.17
2178;BME280;1095;50.992;6.798;2023-05-25T12:28:57;101847.63;;;17.68;63.19
2178;BME280;1095;50.992;6.798;2023-05-25T12:31:25;101846.38;;;17.87;63.06
2178;BME280;1095;50.992;6.798;2023-05-25T12:34:07;101841.97;;;17.24;63.60
2178;BME280;1095;50.992;6.798;2023-05-25T12:36:53;101860.69;;;17.06;64.50
2178;BME280;1095;50.992;6.798;2023-05-25T12:39:32;101849.91;;;17.32;64.21
2178;BME280;1095;50.992;6.798;2023-05-25T12:42:03;101861.78;;;17.36;63.97
2178;BME280;1095;50.992;6.798;2023-05-25T12:44:32;101843.09;;;17.38;63.26
2178;BME280;1095;50.992;6.798;2023-05-25T12:47:08;101854.41;;;17.54;63.42
2178;BME280;1095;50.992;6.798;2023-05-25T12:49:36;101837.00;;;17.29;63.04
2178;BME280;1095;50.992;6.798;2023-05-25T12:52:05;101841.03;;;17.56;63.15
2178;BME280;1095;50.992;6.798;2023-05-25T12:54:39;101836.34;;;17.97;61.58
2178;BME280;1095;50.992;6.798;2023-05-25T12:57:09;101832.53;;;17.77;61.79
2178;BME280;1095;50.992;6.798;2023-05-25T12:59:37;101833.03;;;17.64;61.83
2178;BME280;1095;50.992;6.798;2023-05-25T13:02:05;101831.09;;;17.11;62.97
2178;BME280;1095;50.992;6.798;2023-05-25T13:04:33;101832.78;;;17.04;64.14
2178;BME280;1095;50.992;6.798;2023-05-25T13:07:01;101840.47;;;17.77;63.71
2178;BME280;1095;50.992;6.798;2023-05-25T13:09:29;101834.81;;;17.41;63.66
2178;BME280;1095;50.992;6.798;2023-05-25T13:11:57;101832.41;;;17.15;63.79
2178;BME280;1095;50.992;6.798;2023-05-25T13:14:25;101827.22;;;17.38;63.36
2178;BME280;1095;50.992;6.798;2023-05-25T13:16:53;101827.41;;;17.36;62.04
2178;BME280;1095;50.992;6.798;2023-05-25T13:19:22;101818.22;;;17.08;62.50